Flight Track Log - Related Links

Times and Time Zones

All times are in EDT time to prevent confusion due to time zone crossing. See the N697BJ flight status page for this flight to view local times or setup timezone preferences in your user account.

Time Position Orientation Groundspeed Altitude Reporting Facility
EDT Latitude Longitude Course Direction KTS MPH feet Rate Location/Type
Fri 11:13:06 PM 39.9939 -82.9147 271° West 177 204 1,500  Level Indianapolis Center
Fri 11:13:30 PM 39.9942 -82.9392 271° West 169 194 2,500 1,855 Climbing Indianapolis Center
Fri 11:14:01 PM 39.9958 -82.9650 275° West 190 219 3,200 2,543 Climbing Indianapolis Center
Fri 11:15:02 PM 39.9950 -83.0528 269° West 200 230 6,400 2,508 Climbing Indianapolis Center
Fri 11:16:03 PM 39.9942 -83.1364 269° West 223 257 8,300 2,115 Climbing Indianapolis Center
Fri 11:17:04 PM 39.9964 -83.2256 272° West 243 280 10,700 1,820 Climbing Indianapolis Center
Fri 11:18:05 PM 40.0178 -83.3197 287° West 284 327 12,000 1,525 Climbing Indianapolis Center
Fri 11:19:06 PM 40.0839 -83.3931 320° Northwest 310 357 13,800 1,770 Climbing Indianapolis Center
Fri 11:20:07 PM 40.1497 -83.4744 317° Northwest 329 379 15,600 1,672 Climbing Indianapolis Center
Fri 11:21:08 PM 40.2100 -83.5647 311° West 328 377 17,200 1,574 Climbing Indianapolis Center
Fri 11:22:09 PM 40.2803 -83.6517 317° Northwest 344 396 18,800 1,672 Climbing Indianapolis Center
Fri 11:23:10 PM 40.3497 -83.7394 316° Northwest 345 397 20,600 1,770 Climbing Indianapolis Center
Fri 11:24:11 PM 40.4133 -83.8336 312° West 342 394 22,400 1,426 Climbing Indianapolis Center
Fri 11:25:12 PM 40.4742 -83.9347 308° West 350 403 23,500 1,180 Climbing Indianapolis Center
Fri 11:26:13 PM 40.5364 -84.0378 308° West 357 411 24,800 1,321 Climbing Indianapolis Center
Fri 11:28:41 PM 40.7161 -84.2922 313° West 368 423 28,100 1,292 Climbing Chicago Center
Fri 11:29:42 PM 40.7800 -84.3992 308° West 371 427 29,300 984 Climbing Chicago Center
Fri 11:30:43 PM 40.8486 -84.5011 312° West 372 428 30,100 934 Climbing Chicago Center
Fri 11:31:44 PM 40.9172 -84.6053 311° West 375 432 31,200 738 Climbing Chicago Center
Fri 11:32:45 PM 40.9853 -84.7117 310° West 378 435 31,600 393 Climbing Chicago Center
Fri 11:33:46 PM 41.0458 -84.8275 305° West 383 441 32,000 197 Climbing Chicago Center
Fri 11:34:47 PM 41.1050 -84.9481 303° West 388 447 32,000  Level Chicago Center
Fri 11:35:48 PM 41.1706 -85.0686 306° West 397 457 32,000  Level Chicago Center
Fri 11:36:48 PM 41.2319 -85.1911 304° West 399 459 32,000  Level Chicago Center
Fri 11:37:49 PM 41.3006 -85.3111 307° West 404 465 32,000  Level Chicago Center
Fri 11:38:50 PM 41.3692 -85.4300 308° West 404 465 32,000  Level Chicago Center
Fri 11:39:51 PM 41.4333 -85.5525 305° West 400 460 32,000  Level Chicago Center
Fri 11:40:52 PM 41.4997 -85.6731 306° West 398 458 32,000  Level Chicago Center
Fri 11:41:53 PM 41.5578 -85.7989 302° West 395 455 32,000  Level Chicago Center
Fri 11:42:54 PM 41.6200 -85.9225 304° West 397 457 32,000  Level Chicago Center
Fri 11:43:54 PM 41.6833 -86.0453 305° West 401 461 32,000  Level Chicago Center
Fri 11:44:55 PM 41.7439 -86.1694 303° West 399 459 32,000  Level Chicago Center
Fri 11:45:56 PM 41.8072 -86.2936 304° West 403 464 32,000  Level Chicago Center
Fri 11:46:57 PM 41.8664 -86.4203 302° West 401 461 32,000  Level Chicago Center
Fri 11:47:58 PM 41.9414 -86.5697 304° West 403 464 32,000  Level Chicago Center
Fri 11:48:59 PM 42.0014 -86.6947 303° West 399 459 32,000  Level Chicago Center
Fri 11:49:59 PM 42.0600 -86.8069 305° West 404 465 32,000  Level Chicago Center
Fri 11:51:00 PM 42.1203 -86.9319 303° West 403 464 32,000  Level Chicago Center
Fri 11:52:01 PM 42.1850 -87.0528 306° West 400 460 32,000  Level Chicago Center
Fri 11:53:02 PM 42.2583 -87.2006 304° West 399 459 32,000  Level Chicago Center
Fri 11:54:03 PM 42.3161 -87.3261 302° West 398 458 32,000  Level Chicago Center
Fri 11:55:04 PM 42.3786 -87.4492 305° West 401 461 32,000  Level Chicago Center
Fri 11:56:05 PM 42.4372 -87.5739 303° West 399 459 32,000  Level Chicago Center
Fri 11:57:05 PM 42.4953 -87.6997 302° West 398 458 32,000  Level Chicago Center
Fri 11:58:06 PM 42.5522 -87.8206 303° West 398 458 32,000  Level Chicago Center
Fri 11:59:07 PM 42.6061 -87.9517 299° West 396 456 32,000  Level Chicago Center
Sat 12:00:08 AM 42.6619 -88.0817 300° West 399 459 32,000  Level Chicago Center
Sat 12:01:09 AM 42.7150 -88.2133 299° West 398 458 32,000  Level Chicago Center
Sat 12:02:09 AM 42.7919 -88.3589 306° West 405 466 32,000  Level Chicago Center
Sat 12:03:10 AM 42.8550 -88.4875 304° West 406 467 32,000  Level Chicago Center
Sat 12:04:11 AM 42.9206 -88.6147 305° West 408 470 32,000  Level Chicago Center
Sat 12:05:12 AM 42.9839 -88.7431 304° West 407 468 32,000  Level Chicago Center
Sat 12:06:12 AM 43.0472 -88.8714 304° West 405 466 32,000  Level Chicago Center
Sat 12:07:13 AM 43.1103 -89.0022 303° West 410 472 32,000  Level Chicago Center
Sat 12:08:14 AM 43.1689 -89.1372 301° West 410 472 32,000  Level Chicago Center
Sat 12:09:15 AM 43.2303 -89.2678 303° West 406 467 32,000  Level Chicago Center
Sat 12:10:15 AM 43.2833 -89.4058 298° West 407 468 32,000  Level Chicago Center
Sat 12:11:16 AM 43.3439 -89.5367 303° West 404 465 32,000  Level Chicago Center
Sat 12:12:17 AM 43.4075 -89.6669 304° West 407 468 32,000  Level Chicago Center
Sat 12:13:17 AM 43.4628 -89.8047 299° West 410 472 32,000  Level Chicago Center
Sat 12:14:18 AM 43.5161 -89.9403 299° West 405 466 32,000  Level Chicago Center
Sat 12:14:39 AM 43.5381 -89.9858 304° West 407 468 32,000  Level Minneapolis Center
Sat 12:15:39 AM 43.5925 -90.1253 298° West 412 474 32,000  Level Minneapolis Center
Sat 12:16:40 AM 43.6514 -90.2719 299° West 409 471 32,000  Level Minneapolis Center
Sat 12:17:40 AM 43.7117 -90.4056 302° West 412 474 32,000  Level Minneapolis Center
Sat 12:18:41 AM 43.7700 -90.5422 301° West 415 478 32,000  Level Minneapolis Center
Sat 12:19:42 AM 43.8331 -90.6744 304° West 416 479 32,000  Level Minneapolis Center
Sat 12:20:42 AM 43.8950 -90.8075 303° West 416 479 32,000  Level Minneapolis Center
Sat 12:21:43 AM 43.9564 -90.9414 303° West 415 478 32,000 -492 Level Minneapolis Center
Sat 12:22:44 AM 44.0197 -91.0772 303° West 420 483 31,000 -1,190 Descending Minneapolis Center
Sat 12:23:44 AM 44.0817 -91.2189 301° West 428 493 29,600 -1,388 Descending Minneapolis Center
Sat 12:24:45 AM 44.1447 -91.3622 302° West 433 498 28,200 -1,537 Descending Minneapolis Center
Sat 12:25:45 AM 44.2033 -91.5117 299° West 437 503 26,500 -1,636 Descending Minneapolis Center
Sat 12:26:46 AM 44.2589 -91.6647 297° West 441 507 24,900 -1,672 Descending Minneapolis Center
Sat 12:27:47 AM 44.3217 -91.8081 302° West 439 505 23,100 -2,132 Descending Minneapolis Center
Sat 12:28:47 AM 44.3981 -91.9708 303° West 423 487 20,600 -2,471 Descending Minneapolis Center
Sat 12:29:29 AM 44.4428 -92.0531 307° West 395 455 18,900 -2,516 Descending FAA TRACON SMA TRACON (SMA)
Sat 12:29:49 AM 44.4592 -92.0925 300° West 385 443 18,000 -3,000 Descending FAA TRACON SMA TRACON (SMA)
Sat 12:30:09 AM 44.4792 -92.1406 300° West 373 429 16,900 -3,000 Descending FAA TRACON SMA TRACON (SMA)
Sat 12:30:29 AM 44.4936 -92.1792 298° West 367 422 16,000 -2,700 Descending FAA TRACON SMA TRACON (SMA)
Sat 12:30:49 AM 44.5081 -92.2175 298° West 363 418 15,100 -3,000 Descending FAA TRACON SMA TRACON (SMA)
Sat 12:31:09 AM 44.5250 -92.2653 296° West 357 411 14,000 -3,000 Descending FAA TRACON SMA TRACON (SMA)
Sat 12:31:29 AM 44.5392 -92.3031 298° West 356 410 13,100 -2,550 Descending FAA TRACON SMA TRACON (SMA)
Sat 12:31:49 AM 44.5542 -92.3392 300° West 350 403 12,300 -2,400 Descending FAA TRACON SMA TRACON (SMA)
Sat 12:32:09 AM 44.5711 -92.3836 298° West 340 391 11,500 -1,950 Descending FAA TRACON SMA TRACON (SMA)
Sat 12:32:29 AM 44.5858 -92.4167 302° West 328 377 11,000 -1,350 Descending FAA TRACON SMA TRACON (SMA)
Sat 12:32:49 AM 44.5983 -92.4497 298° West 316 364 10,600 -1,200 Descending FAA TRACON SMA TRACON (SMA)
Sat 12:33:09 AM 44.6131 -92.4897 297° West 301 346 10,200 -900 Descending FAA TRACON SMA TRACON (SMA)
Sat 12:33:29 AM 44.6214 -92.5219 290° West 289 333 10,000 -300 Descending FAA TRACON SMA TRACON (SMA)
Sat 12:33:49 AM 44.6269 -92.5547 283° West 281 323 10,000  Level FAA TRACON SMA TRACON (SMA)
Sat 12:34:09 AM 44.6344 -92.5942 285° West 275 316 10,000  Level FAA TRACON SMA TRACON (SMA)
Sat 12:34:29 AM 44.6378 -92.6267 278° West 273 314 10,000 -750 Level FAA TRACON SMA TRACON (SMA)
Sat 12:34:49 AM 44.6436 -92.6567 285° West 265 305 9,500 -1,350 Descending FAA TRACON SMA TRACON (SMA)
Sat 12:35:09 AM 44.6542 -92.6925 293° West 260 299 9,100 -1,200 Descending FAA TRACON SMA TRACON (SMA)
Sat 12:35:29 AM 44.6644 -92.7178 300° West 248 285 8,700 -1,500 Descending FAA TRACON SMA TRACON (SMA)
Sat 12:35:49 AM 44.6767 -92.7419 305° West 243 280 8,100 -2,250 Descending FAA TRACON SMA TRACON (SMA)
Sat 12:36:09 AM 44.6903 -92.7733 301° West 246 283 7,200 -1,650 Descending FAA TRACON SMA TRACON (SMA)
Sat 12:36:29 AM 44.7006 -92.7983 300° West 244 281 7,000 -750 Descending FAA TRACON SMA TRACON (SMA)
Sat 12:36:49 AM 44.7106 -92.8222 301° West 234 269 6,700 -1,024 Descending FAA TRACON SMA TRACON (SMA)
Sat 12:37:10 AM 44.7222 -92.8514 299° West 224 258 6,300 -1,200 Descending FAA TRACON SMA TRACON (SMA)
Sat 12:37:29 AM 44.7325 -92.8731 304° West 218 251 5,900 -1,231 Descending FAA TRACON SMA TRACON (SMA)
Sat 12:37:49 AM 44.7414 -92.8958 299° West 216 249 5,500 -1,200 Descending FAA TRACON SMA TRACON (SMA)
Sat 12:38:09 AM 44.7533 -92.9228 302° West 212 244 5,100 -1,050 Descending FAA TRACON SMA TRACON (SMA)
Sat 12:38:29 AM 44.7619 -92.9450 299° West 209 241 4,800 -600 Descending FAA TRACON SMA TRACON (SMA)
Sat 12:38:49 AM 44.7711 -92.9658 302° West 207 238 4,700 -600 Descending FAA TRACON SMA TRACON (SMA)
Sat 12:39:09 AM 44.7811 -92.9894 301° West 187 215 4,400 -900 Descending FAA TRACON SMA TRACON (SMA)
Sat 12:39:29 AM 44.7894 -93.0072 303° West 178 205 4,100 -1,050 Descending FAA TRACON SMA TRACON (SMA)
Sat 12:39:49 AM 44.7969 -93.0247 301° West 171 197 3,700 -1,050 Descending FAA TRACON SMA TRACON (SMA)
Sat 12:40:09 AM 44.8056 -93.0450 301° West 158 182 3,400 -750 Descending FAA TRACON SMA TRACON (SMA)
Sat 12:40:29 AM 44.8114 -93.0594 300° West 145 167 3,200 -600 Descending FAA TRACON SMA TRACON (SMA)
Sat 12:40:49 AM 44.8175 -93.0744 300° West 141 162 3,000 -732 Descending FAA TRACON SMA TRACON (SMA)
Sat 12:41:10 AM 44.8247 -93.0906 302° West 130 150 2,700 -750 Descending FAA TRACON SMA TRACON (SMA)
Sat 12:41:29 AM 44.8308 -93.1039 303° West 128 147 2,500 -769 Descending FAA TRACON SMA TRACON (SMA)
Sat 12:41:49 AM 44.8367 -93.1172 302° West 130 150 2,200 -900 Descending FAA TRACON SMA TRACON (SMA)
Sat 12:42:09 AM 44.8444 -93.1339 303° West 130 150 1,900 -750 Descending FAA TRACON SMA TRACON (SMA)
Sat 12:42:29 AM 44.8500 -93.1467 302° West 129 148 1,700 -585 Descending FAA TRACON SMA TRACON (SMA)
Sat 12:42:50 AM 44.8561 -93.1600 303° West 128 147 1,500 -750 Descending FAA TRACON SMA TRACON (SMA)
Sat 12:43:09 AM 44.8631 -93.1761 301° West 127 146 1,200 -769 Descending FAA TRACON SMA TRACON (SMA)
Sat 12:43:29 AM 44.8683 -93.1892 300° West 127 146 1,000 -600 Descending FAA TRACON SMA TRACON (SMA)
Sat 12:45:00 AM 44.8667 -93.2167 289° West  Level FlightAware Approximate
Sat 12:52:00 AM 44.8820 -93.2218 289° West  Level Estimated

Login

Don't have an account? Register now (free) for customized features, flight alerts, and more!